sensor_id;sensor_type;location;lat;lon;timestamp;pressure;altitude;pressure_sealevel;temperature;humidity
4133;BME280;2080;51.038;7.008;2022-07-23T00:00:08;75434.78;;;-142.53;100.00
4133;BME280;2080;51.038;7.008;2022-07-23T00:02:36;75456.13;;;-142.53;100.00
4133;BME280;2080;51.038;7.008;2022-07-23T00:05:02;75481.38;;;-142.53;100.00
4133;BME280;2080;51.038;7.008;2022-07-23T00:07:27;75463.91;;;-142.53;100.00
4133;BME280;2080;51.038;7.008;2022-07-23T00:09:53;75461.97;;;-142.53;100.00
4133;BME280;2080;51.038;7.008;2022-07-23T00:12:18;75448.38;;;-142.53;100.00
4133;BME280;2080;51.038;7.008;2022-07-23T00:14:44;75417.28;;;-142.53;100.00
4133;BME280;2080;51.038;7.008;2022-07-23T00:17:12;75430.88;;;-142.53;100.00
4133;BME280;2080;51.038;7.008;2022-07-23T00:19:37;75436.72;;;-142.53;100.00
4133;BME280;2080;51.038;7.008;2022-07-23T00:22:05;75442.53;;;-142.53;100.00
4133;BME280;2080;51.038;7.008;2022-07-23T00:24:30;75473.59;;;-142.53;100.00
4133;BME280;2080;51.038;7.008;2022-07-23T00:26:56;75461.97;;;-142.53;100.00
4133;BME280;2080;51.038;7.008;2022-07-23T00:29:21;75458.06;;;-142.53;100.00
4133;BME280;2080;51.038;7.008;2022-07-23T00:31:47;75450.31;;;-142.53;100.00
4133;BME280;2080;51.038;7.008;2022-07-23T00:34:12;75450.31;;;-142.53;100.00
4133;BME280;2080;51.038;7.008;2022-07-23T00:36:37;75415.34;;;-142.53;100.00
4133;BME280;2080;51.038;7.008;2022-07-23T00:39:03;75411.47;;;-142.53;100.00
4133;BME280;2080;51.038;7.008;2022-07-23T00:41:31;75427.00;;;-142.53;100.00
4133;BME280;2080;51.038;7.008;2022-07-23T00:44:14;75432.84;;;-142.53;100.00
4133;BME280;2080;51.038;7.008;2022-07-23T00:46:45;75427.00;;;-142.53;100.00
4133;BME280;2080;51.038;7.008;2022-07-23T00:49:11;75434.78;;;-142.53;100.00
4133;BME280;2080;51.038;7.008;2022-07-23T00:51:36;75454.19;;;-142.53;100.00
4133;BME280;2080;51.038;7.008;2022-07-23T00:54:02;75450.31;;;-142.53;100.00
4133;BME280;2080;51.038;7.008;2022-07-23T00:56:27;75421.19;;;-142.53;100.00
4133;BME280;2080;51.038;7.008;2022-07-23T00:58:57;75403.72;;;-142.53;100.00
4133;BME280;2080;51.038;7.008;2022-07-23T01:01:22;75411.47;;;-142.53;100.00
4133;BME280;2080;51.038;7.008;2022-07-23T01:03:50;75415.34;;;-142.53;100.00
4133;BME280;2080;51.038;7.008;2022-07-23T01:06:16;75411.47;;;-142.53;100.00
4133;BME280;2080;51.038;7.008;2022-07-23T01:08:43;75411.47;;;-142.53;100.00
4133;BME280;2080;51.038;7.008;2022-07-23T01:11:12;75411.47;;;-142.53;100.00
4133;BME280;2080;51.038;7.008;2022-07-23T01:13:42;75403.72;;;-142.53;100.00
4133;BME280;2080;51.038;7.008;2022-07-23T01:16:08;75395.94;;;-142.53;100.00
4133;BME280;2080;51.038;7.008;2022-07-23T01:18:33;75397.88;;;-142.53;100.00
4133;BME280;2080;51.038;7.008;2022-07-23T01:20:59;75427.00;;;-142.53;100.00
4133;BME280;2080;51.038;7.008;2022-07-23T01:23:24;75430.88;;;-142.53;100.00
4133;BME280;2080;51.038;7.008;2022-07-23T01:25:53;75444.47;;;-142.53;100.00
4133;BME280;2080;51.038;7.008;2022-07-23T01:28:23;75423.13;;;-142.53;100.00
4133;BME280;2080;51.038;7.008;2022-07-23T01:30:51;75415.34;;;-142.53;100.00
4133;BME280;2080;51.038;7.008;2022-07-23T01:33:17;75427.00;;;-142.53;100.00
4133;BME280;2080;51.038;7.008;2022-07-23T01:35:42;75442.53;;;-142.53;100.00
4133;BME280;2080;51.038;7.008;2022-07-23T01:38:09;75450.31;;;-142.53;100.00
4133;BME280;2080;51.038;7.008;2022-07-23T01:40:35;75454.19;;;-142.53;100.00
4133;BME280;2080;51.038;7.008;2022-07-23T01:43:00;75450.31;;;-142.53;100.00
4133;BME280;2080;51.038;7.008;2022-07-23T01:45:25;75463.91;;;-142.53;100.00
4133;BME280;2080;51.038;7.008;2022-07-23T01:47:51;75454.19;;;-142.53;100.00
4133;BME280;2080;51.038;7.008;2022-07-23T01:50:16;75458.06;;;-142.53;100.00
4133;BME280;2080;51.038;7.008;2022-07-23T01:52:47;75460.00;;;-142.53;100.00
4133;BME280;2080;51.038;7.008;2022-07-23T01:55:12;75454.19;;;-142.53;100.00
4133;BME280;2080;51.038;7.008;2022-07-23T01:57:37;75458.06;;;-142.53;100.00
4133;BME280;2080;51.038;7.008;2022-07-23T02:00:06;75452.25;;;-142.53;100.00
4133;BME280;2080;51.038;7.008;2022-07-23T02:02:36;75465.84;;;-142.53;100.00
4133;BME280;2080;51.038;7.008;2022-07-23T02:05:07;75485.25;;;-142.53;100.00
4133;BME280;2080;51.038;7.008;2022-07-23T02:07:32;75485.25;;;-142.53;100.00
4133;BME280;2080;51.038;7.008;2022-07-23T02:10:02;75477.50;;;-142.53;100.00
4133;BME280;2080;51.038;7.008;2022-07-23T02:12:28;75473.59;;;-142.53;100.00
4133;BME280;2080;51.038;7.008;2022-07-23T02:14:55;75479.44;;;-142.53;100.00
4133;BME280;2080;51.038;7.008;2022-07-23T02:17:21;75461.97;;;-142.53;100.00
4133;BME280;2080;51.038;7.008;2022-07-23T02:19:46;75458.06;;;-142.53;100.00
4133;BME280;2080;51.038;7.008;2022-07-23T02:22:12;75456.13;;;-142.53;100.00
4133;BME280;2080;51.038;7.008;2022-07-23T02:24:37;75454.19;;;-142.53;100.00
4133;BME280;2080;51.038;7.008;2022-07-23T02:27:02;75471.66;;;-142.53;100.00
4133;BME280;2080;51.038;7.008;2022-07-23T02:29:30;75465.84;;;-142.53;100.00
4133;BME280;2080;51.038;7.008;2022-07-23T02:31:58;75465.84;;;-142.53;100.00
4133;BME280;2080;51.038;7.008;2022-07-23T02:34:26;75477.50;;;-142.53;100.00
4133;BME280;2080;51.038;7.008;2022-07-23T02:36:51;75479.44;;;-142.53;100.00
4133;BME280;2080;51.038;7.008;2022-07-23T02:39:16;75485.25;;;-142.53;100.00
4133;BME280;2080;51.038;7.008;2022-07-23T02:41:42;75493.03;;;-142.53;100.00
4133;BME280;2080;51.038;7.008;2022-07-23T02:44:15;75500.78;;;-142.53;100.00
4133;BME280;2080;51.038;7.008;2022-07-23T02:46:40;75500.78;;;-142.53;100.00
4133;BME280;2080;51.038;7.008;2022-07-23T02:49:05;75514.38;;;-142.53;100.00
4133;BME280;2080;51.038;7.008;2022-07-23T02:51:31;75504.69;;;-142.53;100.00
4133;BME280;2080;51.038;7.008;2022-07-23T02:53:56;75512.44;;;-142.53;100.00
4133;BME280;2080;51.038;7.008;2022-07-23T02:56:22;75512.44;;;-142.53;100.00
4133;BME280;2080;51.038;7.008;2022-07-23T02:58:47;75504.69;;;-142.53;100.00
4133;BME280;2080;51.038;7.008;2022-07-23T03:01:15;75502.75;;;-142.53;100.00
4133;BME280;2080;51.038;7.008;2022-07-23T03:03:40;75520.22;;;-142.53;100.00
4133;BME280;2080;51.038;7.008;2022-07-23T03:06:06;75512.44;;;-142.53;100.00
4133;BME280;2080;51.038;7.008;2022-07-23T03:08:31;75516.34;;;-142.53;100.00
4133;BME280;2080;51.038;7.008;2022-07-23T03:10:57;75524.09;;;-142.53;100.00
4133;BME280;2080;51.038;7.008;2022-07-23T03:13:22;75543.50;;;-142.53;100.00
4133;BME280;2080;51.038;7.008;2022-07-23T03:15:47;75531.88;;;-142.53;100.00
4133;BME280;2080;51.038;7.008;2022-07-23T03:18:13;75533.81;;;-142.53;100.00
4133;BME280;2080;51.038;7.008;2022-07-23T03:20:40;75543.50;;;-142.53;100.00
4133;BME280;2080;51.038;7.008;2022-07-23T03:23:09;75535.75;;;-142.53;100.00
4133;BME280;2080;51.038;7.008;2022-07-23T03:25:34;75551.28;;;-142.53;100.00
4133;BME280;2080;51.038;7.008;2022-07-23T03:28:02;75555.16;;;-142.53;100.00
4133;BME280;2080;51.038;7.008;2022-07-23T03:30:27;75557.09;;;-142.53;100.00
4133;BME280;2080;51.038;7.008;2022-07-23T03:32:53;75531.88;;;-142.53;100.00
4133;BME280;2080;51.038;7.008;2022-07-23T03:35:18;75539.63;;;-142.53;100.00
4133;BME280;2080;51.038;7.008;2022-07-23T03:37:46;75541.56;;;-142.53;100.00
4133;BME280;2080;51.038;7.008;2022-07-23T03:40:14;75543.50;;;-142.53;100.00
4133;BME280;2080;51.038;7.008;2022-07-23T03:42:39;75547.41;;;-142.53;100.00
4133;BME280;2080;51.038;7.008;2022-07-23T03:45:10;75547.41;;;-142.53;100.00
4133;BME280;2080;51.038;7.008;2022-07-23T03:47:38;75543.50;;;-142.53;100.00
4133;BME280;2080;51.038;7.008;2022-07-23T03:50:04;75537.69;;;-142.53;100.00
4133;BME280;2080;51.038;7.008;2022-07-23T03:52:30;75539.63;;;-142.53;100.00
4133;BME280;2080;51.038;7.008;2022-07-23T03:54:55;75551.28;;;-142.53;100.00
4133;BME280;2080;51.038;7.008;2022-07-23T03:57:24;75562.94;;;-142.53;100.00
4133;BME280;2080;51.038;7.008;2022-07-23T03:59:52;75555.16;;;-142.53;100.00
4133;BME280;2080;51.038;7.008;2022-07-23T04:02:17;75561.00;;;-142.53;100.00
4133;BME280;2080;51.038;7.008;2022-07-23T04:04:45;75551.28;;;-142.53;100.00
4133;BME280;2080;51.038;7.008;2022-07-23T04:07:12;75559.06;;;-142.53;100.00
4133;BME280;2080;51.038;7.008;2022-07-23T04:09:39;75559.06;;;-142.53;100.00
4133;BME280;2080;51.038;7.008;2022-07-23T04:12:06;75527.97;;;-142.53;100.00
4133;BME280;2080;51.038;7.008;2022-07-23T04:14:32;75527.97;;;-142.53;100.00
4133;BME280;2080;51.038;7.008;2022-07-23T04:17:00;75555.16;;;-142.53;100.00
4133;BME280;2080;51.038;7.008;2022-07-23T04:19:28;75551.28;;;-142.53;100.00
4133;BME280;2080;51.038;7.008;2022-07-23T04:21:56;75539.63;;;-142.53;100.00
4133;BME280;2080;51.038;7.008;2022-07-23T04:24:24;75543.50;;;-142.53;100.00
4133;BME280;2080;51.038;7.008;2022-07-23T04:26:51;75527.97;;;-142.53;100.00
4133;BME280;2080;51.038;7.008;2022-07-23T04:29:20;75524.09;;;-142.53;100.00
4133;BME280;2080;51.038;7.008;2022-07-23T04:31:50;75531.88;;;-142.53;100.00
4133;BME280;2080;51.038;7.008;2022-07-23T04:34:15;75535.75;;;-142.53;100.00
4133;BME280;2080;51.038;7.008;2022-07-23T04:36:41;75531.88;;;-142.53;100.00
4133;BME280;2080;51.038;7.008;2022-07-23T04:39:06;75531.88;;;-142.53;100.00
4133;BME280;2080;51.038;7.008;2022-07-23T04:41:34;75535.75;;;-142.53;100.00
4133;BME280;2080;51.038;7.008;2022-07-23T04:43:59;75527.97;;;-142.53;100.00
4133;BME280;2080;51.038;7.008;2022-07-23T04:46:25;75489.16;;;-142.53;100.00
4133;BME280;2080;51.038;7.008;2022-07-23T04:48:53;75467.78;;;-142.53;100.00
4133;BME280;2080;51.038;7.008;2022-07-23T04:51:18;75461.97;;;-142.53;100.00
4133;BME280;2080;51.038;7.008;2022-07-23T04:53:44;75465.84;;;-142.53;100.00
4133;BME280;2080;51.038;7.008;2022-07-23T04:56:12;75467.78;;;-142.53;100.00
4133;BME280;2080;51.038;7.008;2022-07-23T04:58:40;75479.44;;;-142.53;100.00
4133;BME280;2080;51.038;7.008;2022-07-23T05:01:05;75481.38;;;-142.53;100.00
4133;BME280;2080;51.038;7.008;2022-07-23T05:03:31;75493.03;;;-142.53;100.00
4133;BME280;2080;51.038;7.008;2022-07-23T05:05:58;75504.69;;;-142.53;100.00
4133;BME280;2080;51.038;7.008;2022-07-23T05:08:27;75512.44;;;-142.53;100.00
4133;BME280;2080;51.038;7.008;2022-07-23T05:10:52;75520.22;;;-142.53;100.00
4133;BME280;2080;51.038;7.008;2022-07-23T05:13:18;75520.22;;;-142.53;100.00
4133;BME280;2080;51.038;7.008;2022-07-23T05:15:44;75518.28;;;-142.53;100.00
4133;BME280;2080;51.038;7.008;2022-07-23T05:18:09;75527.97;;;-142.53;100.00
4133;BME280;2080;51.038;7.008;2022-07-23T05:20:35;75524.09;;;-142.53;100.00
4133;BME280;2080;51.038;7.008;2022-07-23T05:23:00;75520.22;;;-142.53;100.00
4133;BME280;2080;51.038;7.008;2022-07-23T05:25:26;75533.81;;;-142.53;100.00
4133;BME280;2080;51.038;7.008;2022-07-23T05:27:51;75535.75;;;-142.53;100.00
4133;BME280;2080;51.038;7.008;2022-07-23T05:30:17;75533.81;;;-142.53;100.00
4133;BME280;2080;51.038;7.008;2022-07-23T05:32:45;75526.03;;;-142.53;100.00
4133;BME280;2080;51.038;7.008;2022-07-23T05:35:10;75506.63;;;-142.53;100.00
4133;BME280;2080;51.038;7.008;2022-07-23T05:37:38;75500.78;;;-142.53;100.00
4133;BME280;2080;51.038;7.008;2022-07-23T05:40:06;75496.91;;;-142.53;100.00
4133;BME280;2080;51.038;7.008;2022-07-23T05:42:33;75493.03;;;-142.53;100.00
4133;BME280;2080;51.038;7.008;2022-07-23T05:45:02;75471.66;;;-142.53;100.00
4133;BME280;2080;51.038;7.008;2022-07-23T05:47:28;75463.91;;;-142.53;100.00
4133;BME280;2080;51.038;7.008;2022-07-23T05:49:55;75465.84;;;-142.53;100.00
4133;BME280;2080;51.038;7.008;2022-07-23T05:52:21;75456.13;;;-142.53;100.00
4133;BME280;2080;51.038;7.008;2022-07-23T05:54:49;75434.78;;;-142.53;100.00
4133;BME280;2080;51.038;7.008;2022-07-23T05:57:16;75415.34;;;-142.53;100.00
4133;BME280;2080;51.038;7.008;2022-07-23T05:59:44;75407.59;;;-142.53;100.00
4133;BME280;2080;51.038;7.008;2022-07-23T06:02:14;75427.00;;;-142.53;100.00
4133;BME280;2080;51.038;7.008;2022-07-23T06:04:42;75427.00;;;-142.53;100.00
4133;BME280;2080;51.038;7.008;2022-07-23T06:07:12;75442.53;;;-142.53;100.00
4133;BME280;2080;51.038;7.008;2022-07-23T06:09:38;75432.84;;;-142.53;100.00
4133;BME280;2080;51.038;7.008;2022-07-23T06:12:09;75425.06;;;-142.53;100.00
4133;BME280;2080;51.038;7.008;2022-07-23T06:14:34;75415.34;;;-142.53;100.00
4133;BME280;2080;51.038;7.008;2022-07-23T06:17:02;75405.66;;;-142.53;100.00
4133;BME280;2080;51.038;7.008;2022-07-23T06:19:27;75423.13;;;-142.53;100.00
4133;BME280;2080;51.038;7.008;2022-07-23T06:21:53;75438.66;;;-142.53;100.00
4133;BME280;2080;51.038;7.008;2022-07-23T06:24:20;75442.53;;;-142.53;100.00
4133;BME280;2080;51.038;7.008;2022-07-23T06:26:49;75446.44;;;-142.53;100.00
4133;BME280;2080;51.038;7.008;2022-07-23T06:29:14;75446.44;;;-142.53;100.00
4133;BME280;2080;51.038;7.008;2022-07-23T06:31:42;75446.44;;;-142.53;100.00
4133;BME280;2080;51.038;7.008;2022-07-23T06:34:07;75427.00;;;-142.53;100.00
4133;BME280;2080;51.038;7.008;2022-07-23T06:36:32;75430.88;;;-142.53;100.00
4133;BME280;2080;51.038;7.008;2022-07-23T06:38:58;75430.88;;;-142.53;100.00
4133;BME280;2080;51.038;7.008;2022-07-23T06:41:23;75423.13;;;-142.53;100.00
4133;BME280;2080;51.038;7.008;2022-07-23T06:43:49;75415.34;;;-142.53;100.00
4133;BME280;2080;51.038;7.008;2022-07-23T06:46:15;75403.72;;;-142.53;100.00
4133;BME280;2080;51.038;7.008;2022-07-23T06:48:40;75388.16;;;-142.53;100.00
4133;BME280;2080;51.038;7.008;2022-07-23T06:51:05;75392.06;;;-142.53;100.00
4133;BME280;2080;51.038;7.008;2022-07-23T06:53:31;75388.16;;;-142.53;100.00
4133;BME280;2080;51.038;7.008;2022-07-23T06:55:56;75411.47;;;-142.53;100.00
4133;BME280;2080;51.038;7.008;2022-07-23T06:58:22;75403.72;;;-142.53;100.00
4133;BME280;2080;51.038;7.008;2022-07-23T07:00:47;75395.94;;;-142.53;100.00
4133;BME280;2080;51.038;7.008;2022-07-23T07:03:17;75388.16;;;-142.53;100.00
4133;BME280;2080;51.038;7.008;2022-07-23T07:05:42;75403.72;;;-142.53;100.00
4133;BME280;2080;51.038;7.008;2022-07-23T07:08:10;75394.00;;;-142.53;100.00
4133;BME280;2080;51.038;7.008;2022-07-23T07:10:35;75361.00;;;-142.53;100.00
4133;BME280;2080;51.038;7.008;2022-07-23T07:13:03;75395.94;;;-142.53;100.00
4133;BME280;2080;51.038;7.008;2022-07-23T07:15:28;75403.72;;;-142.53;100.00
4133;BME280;2080;51.038;7.008;2022-07-23T07:17:53;75411.47;;;-142.53;100.00
4133;BME280;2080;51.038;7.008;2022-07-23T07:20:19;75419.25;;;-142.53;100.00
4133;BME280;2080;51.038;7.008;2022-07-23T07:22:44;75411.47;;;-142.53;100.00
4133;BME280;2080;51.038;7.008;2022-07-23T07:25:10;75394.00;;;-142.53;100.00
4133;BME280;2080;51.038;7.008;2022-07-23T07:27:35;75407.59;;;-142.53;100.00
4133;BME280;2080;51.038;7.008;2022-07-23T07:30:02;75405.66;;;-142.53;100.00
4133;BME280;2080;51.038;7.008;2022-07-23T07:32:28;75395.94;;;-142.53;100.00
4133;BME280;2080;51.038;7.008;2022-07-23T07:34:53;75384.28;;;-142.53;100.00
4133;BME280;2080;51.038;7.008;2022-07-23T07:37:19;75361.00;;;-142.53;100.00
4133;BME280;2080;51.038;7.008;2022-07-23T07:39:44;75353.22;;;-142.53;100.00
4133;BME280;2080;51.038;7.008;2022-07-23T07:42:12;75349.34;;;-142.53;100.00
4133;BME280;2080;51.038;7.008;2022-07-23T07:44:43;75368.75;;;-142.53;100.00
4133;BME280;2080;51.038;7.008;2022-07-23T07:47:08;75357.09;;;-142.53;100.00
4133;BME280;2080;51.038;7.008;2022-07-23T07:49:34;75343.50;;;-142.53;100.00
4133;BME280;2080;51.038;7.008;2022-07-23T07:52:02;75326.03;;;-142.53;100.00
4133;BME280;2080;51.038;7.008;2022-07-23T07:54:31;75296.91;;;-142.53;100.00
4133;BME280;2080;51.038;7.008;2022-07-23T07:56:57;75256.13;;;-142.53;100.00
4133;BME280;2080;51.038;7.008;2022-07-23T07:59:23;75263.91;;;-142.53;100.00
4133;BME280;2080;51.038;7.008;2022-07-23T08:01:51;75281.38;;;-142.53;100.00
4133;BME280;2080;51.038;7.008;2022-07-23T08:04:16;75263.91;;;-142.53;100.00
4133;BME280;2080;51.038;7.008;2022-07-23T08:06:42;75281.38;;;-142.53;100.00
4133;BME280;2080;51.038;7.008;2022-07-23T08:09:10;75244.47;;;-142.53;100.00
4133;BME280;2080;51.038;7.008;2022-07-23T08:11:35;75244.47;;;-142.53;100.00
4133;BME280;2080;51.038;7.008;2022-07-23T08:14:01;75236.72;;;-142.53;100.00
4133;BME280;2080;51.038;7.008;2022-07-23T08:16:29;75248.38;;;-142.53;100.00
4133;BME280;2080;51.038;7.008;2022-07-23T08:18:54;75306.63;;;-142.53;100.00
4133;BME280;2080;51.038;7.008;2022-07-23T08:21:22;75333.81;;;-142.53;100.00
4133;BME280;2080;51.038;7.008;2022-07-23T08:23:47;75378.47;;;-142.53;100.00
4133;BME280;2080;51.038;7.008;2022-07-23T08:26:12;75320.22;;;-142.53;100.00
4133;BME280;2080;51.038;7.008;2022-07-23T08:28:40;75386.22;;;-142.53;100.00
4133;BME280;2080;51.038;7.008;2022-07-23T08:31:08;75368.75;;;-142.53;100.00
4133;BME280;2080;51.038;7.008;2022-07-23T08:33:37;75341.56;;;-142.53;100.00
4133;BME280;2080;51.038;7.008;2022-07-23T08:36:03;75341.56;;;-142.53;100.00
4133;BME280;2080;51.038;7.008;2022-07-23T08:38:29;75345.44;;;-142.53;100.00
4133;BME280;2080;51.038;7.008;2022-07-23T08:40:55;75357.09;;;-142.53;100.00
4133;BME280;2080;51.038;7.008;2022-07-23T08:43:24;75314.38;;;-142.53;100.00
4133;BME280;2080;51.038;7.008;2022-07-23T08:45:53;75394.00;;;-142.53;100.00
4133;BME280;2080;51.038;7.008;2022-07-23T08:48:25;75440.59;;;-142.53;100.00
4133;BME280;2080;51.038;7.008;2022-07-23T08:50:53;75421.19;;;-142.53;100.00
4133;BME280;2080;51.038;7.008;2022-07-23T08:53:21;75392.06;;;-142.53;100.00
4133;BME280;2080;51.038;7.008;2022-07-23T08:55:52;75458.06;;;-142.53;100.00
4133;BME280;2080;51.038;7.008;2022-07-23T08:58:18;75399.81;;;-142.53;100.00
4133;BME280;2080;51.038;7.008;2022-07-23T09:00:45;75372.63;;;-142.53;100.00
4133;BME280;2080;51.038;7.008;2022-07-23T09:03:22;75361.00;;;-142.53;100.00
4133;BME280;2080;51.038;7.008;2022-07-23T09:05:51;75368.75;;;-142.53;100.00
4133;BME280;2080;51.038;7.008;2022-07-23T09:08:22;75337.69;;;-142.53;100.00
4133;BME280;2080;51.038;7.008;2022-07-23T09:16:12;75294.97;;;-142.53;100.00
4133;BME280;2080;51.038;7.008;2022-07-23T09:18:42;75310.50;;;-142.53;100.00
4133;BME280;2080;51.038;7.008;2022-07-23T09:23:43;75250.31;;;-142.53;100.00
4133;BME280;2080;51.038;7.008;2022-07-23T09:26:22;75310.50;;;-142.53;100.00
4133;BME280;2080;51.038;7.008;2022-07-23T09:28:56;75306.63;;;-142.53;100.00
4133;BME280;2080;51.038;7.008;2022-07-23T09:31:22;75329.91;;;-142.53;100.00
4133;BME280;2080;51.038;7.008;2022-07-23T09:33:49;75293.03;;;-142.53;100.00
4133;BME280;2080;51.038;7.008;2022-07-23T09:36:14;75250.31;;;-142.53;100.00
4133;BME280;2080;51.038;7.008;2022-07-23T09:38:49;75205.66;;;-142.53;100.00
4133;BME280;2080;51.038;7.008;2022-07-23T09:41:15;75213.41;;;-142.53;100.00
4133;BME280;2080;51.038;7.008;2022-07-23T09:43:41;75246.44;;;-142.53;100.00
4133;BME280;2080;51.038;7.008;2022-07-23T09:48:48;75232.84;;;-142.53;100.00
4133;BME280;2080;51.038;7.008;2022-07-23T09:51:14;75219.25;;;-142.53;100.00
4133;BME280;2080;51.038;7.008;2022-07-23T09:53:50;75269.72;;;-142.53;100.00
4133;BME280;2080;51.038;7.008;2022-07-23T09:56:17;75308.56;;;-142.53;100.00
4133;BME280;2080;51.038;7.008;2022-07-23T09:58:44;75283.31;;;-142.53;100.00
4133;BME280;2080;51.038;7.008;2022-07-23T10:01:14;75221.19;;;-142.53;100.00
4133;BME280;2080;51.038;7.008;2022-07-23T10:03:42;75197.88;;;-142.53;100.00
4133;BME280;2080;51.038;7.008;2022-07-23T10:06:12;75147.41;;;-142.53;100.00
4133;BME280;2080;51.038;7.008;2022-07-23T10:08:40;75147.41;;;-142.53;100.00
4133;BME280;2080;51.038;7.008;2022-07-23T10:11:07;75143.53;;;-142.53;100.00
4133;BME280;2080;51.038;7.008;2022-07-23T10:13:34;75135.75;;;-142.53;100.00
4133;BME280;2080;51.038;7.008;2022-07-23T10:16:18;75131.88;;;-142.53;95.46
4133;BME280;2080;51.038;7.008;2022-07-23T10:18:46;75122.16;;;-142.53;92.92
4133;BME280;2080;51.038;7.008;2022-07-23T10:21:12;75094.97;;;-142.53;96.32
4133;BME280;2080;51.038;7.008;2022-07-23T10:29:50;75061.97;;;-142.53;82.60
4133;BME280;2080;51.038;7.008;2022-07-23T10:32:20;75044.50;;;-142.53;78.34
4133;BME280;2080;51.038;7.008;2022-07-23T10:34:51;75030.91;;;-142.53;79.69
4133;BME280;2080;51.038;7.008;2022-07-23T10:37:32;75044.50;;;-142.53;78.09
4133;BME280;2080;51.038;7.008;2022-07-23T10:40:19;75013.44;;;-142.53;80.42
4133;BME280;2080;51.038;7.008;2022-07-23T10:42:47;75003.72;;;-142.53;74.97
4133;BME280;2080;51.038;7.008;2022-07-23T10:45:31;74992.06;;;-142.53;77.47
4133;BME280;2080;51.038;7.008;2022-07-23T10:50:39;74929.94;;;-142.53;76.38
4133;BME280;2080;51.038;7.008;2022-07-23T10:57:56;74867.81;;;-142.53;73.06
4133;BME280;2080;51.038;7.008;2022-07-23T11:00:26;74858.09;;;-142.53;67.74
4133;BME280;2080;51.038;7.008;2022-07-23T11:02:56;74898.88;;;-142.53;66.00
4133;BME280;2080;51.038;7.008;2022-07-23T11:05:23;74879.47;;;-142.53;68.49
4133;BME280;2080;51.038;7.008;2022-07-23T11:10:37;74879.47;;;-142.53;69.96
4133;BME280;2080;51.038;7.008;2022-07-23T11:32:07;74751.34;;;-142.53;62.52
4133;BME280;2080;51.038;7.008;2022-07-23T11:34:40;74755.22;;;-142.53;55.51
4133;BME280;2080;51.038;7.008;2022-07-23T11:37:11;74735.81;;;-142.53;55.24
4133;BME280;2080;51.038;7.008;2022-07-23T11:39:38;74770.75;;;-142.53;56.70
4133;BME280;2080;51.038;7.008;2022-07-23T11:42:05;74770.75;;;-142.53;55.87
4133;BME280;2080;51.038;7.008;2022-07-23T11:44:36;74770.75;;;-142.53;55.22
4133;BME280;2080;51.038;7.008;2022-07-23T11:47:04;74766.88;;;-142.53;58.05
4133;BME280;2080;51.038;7.008;2022-07-23T11:49:35;74768.81;;;-142.53;57.62
4133;BME280;2080;51.038;7.008;2022-07-23T11:52:14;74728.03;;;-142.53;62.36
4133;BME280;2080;51.038;7.008;2022-07-23T11:54:53;74720.28;;;-142.53;59.33
4133;BME280;2080;51.038;7.008;2022-07-23T11:57:21;74693.09;;;-142.53;57.01
4133;BME280;2080;51.038;7.008;2022-07-23T11:59:51;74696.97;;;-142.53;55.54
4133;BME280;2080;51.038;7.008;2022-07-23T12:02:19;74687.25;;;-142.53;55.55
4133;BME280;2080;51.038;7.008;2022-07-23T12:04:48;74658.16;;;-142.53;59.05
4133;BME280;2080;51.038;7.008;2022-07-23T12:09:57;74654.25;;;-142.53;53.14
4133;BME280;2080;51.038;7.008;2022-07-23T12:12:28;74642.63;;;-142.53;53.91
4133;BME280;2080;51.038;7.008;2022-07-23T12:14:59;74617.38;;;-142.53;55.64
4133;BME280;2080;51.038;7.008;2022-07-23T12:17:30;74609.63;;;-142.53;50.53
4133;BME280;2080;51.038;7.008;2022-07-23T12:19:57;74615.44;;;-142.53;51.15
4133;BME280;2080;51.038;7.008;2022-07-23T12:22:33;74611.56;;;-142.53;50.84
4133;BME280;2080;51.038;7.008;2022-07-23T12:25:02;74586.31;;;-142.53;51.71
4133;BME280;2080;51.038;7.008;2022-07-23T12:27:29;74580.50;;;-142.53;50.67
4133;BME280;2080;51.038;7.008;2022-07-23T12:29:54;74580.50;;;-142.53;49.21
4133;BME280;2080;51.038;7.008;2022-07-23T12:32:28;74561.06;;;-142.53;49.59
4133;BME280;2080;51.038;7.008;2022-07-23T12:35:08;74557.19;;;-142.53;47.22
4133;BME280;2080;51.038;7.008;2022-07-23T12:37:36;74563.03;;;-142.53;46.94
4133;BME280;2080;51.038;7.008;2022-07-23T12:42:50;74543.59;;;-142.53;47.02
4133;BME280;2080;51.038;7.008;2022-07-23T12:45:18;74549.44;;;-142.53;46.60
4133;BME280;2080;51.038;7.008;2022-07-23T12:48:05;74553.31;;;-142.53;46.56
4133;BME280;2080;51.038;7.008;2022-07-23T12:50:37;74545.56;;;-142.53;46.96
4133;BME280;2080;51.038;7.008;2022-07-23T12:55:42;74535.84;;;-142.53;44.15
4133;BME280;2080;51.038;7.008;2022-07-23T13:05:57;74568.84;;;-142.53;44.48
4133;BME280;2080;51.038;7.008;2022-07-23T13:08:27;74541.66;;;-142.53;44.76
4133;BME280;2080;51.038;7.008;2022-07-23T13:10:54;74526.13;;;-142.53;44.73
4133;BME280;2080;51.038;7.008;2022-07-23T13:13:25;74528.06;;;-142.53;42.55
4133;BME280;2080;51.038;7.008;2022-07-23T13:15:52;74576.59;;;-142.53;43.50
4133;BME280;2080;51.038;7.008;2022-07-23T13:18:20;74547.50;;;-142.53;43.85
4133;BME280;2080;51.038;7.008;2022-07-23T13:20:47;74541.66;;;-142.53;43.19
4133;BME280;2080;51.038;7.008;2022-07-23T13:23:16;74526.13;;;-142.53;45.85
4133;BME280;2080;51.038;7.008;2022-07-23T13:25:41;74603.78;;;-142.53;42.55
4133;BME280;2080;51.038;7.008;2022-07-23T13:28:09;74588.25;;;-142.53;43.04
4133;BME280;2080;51.038;7.008;2022-07-23T13:30:40;74568.84;;;-142.53;44.41
4133;BME280;2080;51.038;7.008;2022-07-23T13:33:11;74559.13;;;-142.53;43.75
4133;BME280;2080;51.038;7.008;2022-07-23T13:35:37;74553.31;;;-142.53;43.10
4133;BME280;2080;51.038;7.008;2022-07-23T13:38:04;74531.97;;;-142.53;43.17
4133;BME280;2080;51.038;7.008;2022-07-23T13:40:35;74522.25;;;-142.53;42.66
4133;BME280;2080;51.038;7.008;2022-07-23T13:43:05;74533.91;;;-142.53;43.42
4133;BME280;2080;51.038;7.008;2022-07-23T13:45:34;74514.50;;;-142.53;42.20
4133;BME280;2080;51.038;7.008;2022-07-23T13:48:03;74508.66;;;-142.53;41.76
4133;BME280;2080;51.038;7.008;2022-07-23T13:50:28;74530.03;;;-142.53;41.65
4133;BME280;2080;51.038;7.008;2022-07-23T13:52:56;74502.84;;;-142.53;44.24
4133;BME280;2080;51.038;7.008;2022-07-23T13:55:22;74489.25;;;-142.53;43.07